Time;durP1;ratioP1;P1;durP2;ratioP2;P2;SDS_P1;SDS_P2;PMS_P1;PMS_P2;Temp;Humidity;BMP_temperature;BMP_pressure;BME280_temperature;BME280_humidity;BME280_pressure;Samples;Min_cycle;Max_cycle;Signal;HPM_P1;HPM_P2
2022/07/10 00:00:46;;;;;;;5.97;1.05;;;;;;;17.30;55.25;101689.78;5024182;28;20063;-67
2022/07/10 00:03:13;;;;;;;4.00;1.20;;;;;;;17.30;54.62;101687.16;5025593;28;20049;-67
2022/07/10 00:05:39;;;;;;;3.38;0.95;;;;;;;16.95;55.81;101684.13;5024357;28;20057;-67
2022/07/10 00:08:06;;;;;;;5.93;1.50;;;;;;;16.89;56.14;101687.13;5028184;28;20045;-67
2022/07/10 00:10:33;;;;;;;6.35;1.08;;;;;;;16.88;55.70;101684.59;5017150;28;20050;-67
2022/07/10 00:12:59;;;;;;;3.00;0.70;;;;;;;16.41;57.78;101685.69;5025026;28;20084;-68
2022/07/10 00:15:26;;;;;;;5.05;1.02;;;;;;;16.37;57.42;101678.88;5023404;28;20505;-67
2022/07/10 00:17:53;;;;;;;4.45;1.05;;;;;;;16.13;58.06;101687.47;5018032;28;20056;-67
2022/07/10 00:20:20;;;;;;;4.97;1.00;;;;;;;15.97;58.40;101680.44;5019694;28;20072;-67
2022/07/10 00:22:46;;;;;;;7.05;1.38;;;;;;;16.39;57.78;101679.66;5023991;28;20127;-67
2022/07/10 00:25:14;;;;;;;4.43;1.05;;;;;;;16.40;57.16;101676.06;5026052;28;20065;-67
2022/07/10 00:27:41;;;;;;;9.15;1.10;;;;;;;16.92;55.42;101681.63;5023915;28;20096;-67
2022/07/10 00:30:10;;;;;;;7.75;1.10;;;;;;;16.62;56.73;101675.63;5023848;28;20103;-67
2022/07/10 00:32:37;;;;;;;5.57;1.00;;;;;;;16.27;56.99;101669.81;5025120;28;20041;-67
2022/07/10 00:35:06;;;;;;;7.28;1.02;;;;;;;16.42;56.66;101676.81;5025995;28;20126;-67
2022/07/10 00:37:32;;;;;;;4.38;1.00;;;;;;;16.31;57.36;101670.47;5024293;28;20093;-67
2022/07/10 00:39:59;;;;;;;3.28;0.93;;;;;;;16.61;56.25;101675.72;5026654;28;20100;-67
2022/07/10 00:42:26;;;;;;;5.18;0.70;;;;;;;16.41;57.02;101672.47;5024408;28;20045;-67
2022/07/10 00:44:53;;;;;;;4.78;0.93;;;;;;;16.32;57.15;101675.69;5016545;28;20046;-67
2022/07/10 00:47:19;;;;;;;6.45;1.08;;;;;;;16.45;56.67;101673.97;5015452;28;20045;-67
2022/07/10 00:49:46;;;;;;;2.53;0.73;;;;;;;16.43;57.20;101667.09;5022126;28;20105;-67
2022/07/10 00:52:15;;;;;;;3.47;0.77;;;;;;;16.13;57.73;101661.84;5006350;28;20485;-67
2022/07/10 00:54:44;;;;;;;5.70;0.80;;;;;;;16.39;57.09;101660.28;5008774;28;20053;-67
2022/07/10 00:57:12;;;;;;;5.75;0.90;;;;;;;16.55;57.01;101671.63;5011253;28;20092;-67
2022/07/10 00:59:39;;;;;;;6.95;1.10;;;;;;;16.85;55.80;101663.59;5024804;28;20123;-67
2022/07/10 01:02:06;;;;;;;2.90;0.80;;;;;;;17.10;54.83;101666.38;5041482;28;20060;-67
2022/07/10 01:04:33;;;;;;;3.75;0.90;;;;;;;16.61;56.45;101668.63;5046724;28;20468;-68
2022/07/10 01:07:00;;;;;;;7.78;0.93;;;;;;;16.61;56.59;101665.13;5042523;28;20048;-67
2022/07/10 01:09:29;;;;;;;8.50;1.00;;;;;;;16.58;56.55;101663.53;5025153;28;20787;-67
2022/07/10 01:11:56;;;;;;;5.93;1.30;;;;;;;16.37;57.02;101657.72;5020217;28;20042;-67
2022/07/10 01:14:22;;;;;;;4.75;0.95;;;;;;;16.29;57.79;101649.41;5025668;28;20065;-67
2022/07/10 01:16:50;;;;;;;2.75;0.70;;;;;;;16.40;57.28;101646.97;5016884;28;20072;-67
2022/07/10 01:19:16;;;;;;;3.55;0.93;;;;;;;16.28;58.05;101642.41;5025284;28;20066;-67
2022/07/10 01:21:44;;;;;;;5.50;1.00;;;;;;;16.19;58.60;101647.38;5005874;28;20046;-67
2022/07/10 01:24:11;;;;;;;6.50;1.55;;;;;;;16.19;57.99;101639.44;5004595;28;20095;-67
2022/07/10 01:26:42;;;;;;;4.35;0.88;;;;;;;16.19;58.07;101642.09;5023083;28;20050;-67
2022/07/10 01:29:08;;;;;;;3.88;0.73;;;;;;;16.12;58.54;101644.28;5025638;28;20053;-67
2022/07/10 01:31:35;;;;;;;5.95;0.77;;;;;;;16.05;59.06;101650.88;5027110;28;20234;-67
2022/07/10 01:34:05;;;;;;;3.78;0.93;;;;;;;16.30;58.81;101643.16;5025646;28;20041;-67
2022/07/10 01:36:32;;;;;;;5.07;1.00;;;;;;;16.00;59.19;101640.56;5026175;28;20079;-67
2022/07/10 01:39:00;;;;;;;2.75;0.80;;;;;;;16.15;58.88;101644.09;5024697;28;20439;-67
2022/07/10 01:41:27;;;;;;;5.65;1.13;;;;;;;16.28;58.93;101642.41;5018239;28;20041;-67
2022/07/10 01:43:54;;;;;;;5.97;1.10;;;;;;;15.91;60.56;101638.47;5025342;28;20045;-67
2022/07/10 01:46:20;;;;;;;4.28;1.05;;;;;;;15.88;60.90;101643.97;5023854;28;20555;-67
2022/07/10 01:48:47;;;;;;;5.75;1.58;;;;;;;16.01;60.81;101633.47;5025220;28;20100;-67
2022/07/10 01:51:13;;;;;;;4.07;0.90;;;;;;;16.16;60.32;101639.63;5025990;28;20049;-67
2022/07/10 01:53:40;;;;;;;7.00;1.05;;;;;;;16.06;60.80;101642.88;5018984;28;20131;-67
2022/07/10 01:56:09;;;;;;;4.22;1.77;;;;;;;15.85;62.06;101643.28;5021538;28;20099;-67
2022/07/10 01:58:36;;;;;;;3.83;1.00;;;;;;;15.90;62.13;101641.22;5025477;28;20123;-67
2022/07/10 02:01:03;;;;;;;6.47;1.20;;;;;;;15.76;62.82;101643.81;5024322;28;20041;-67
2022/07/10 02:06:14;;;;;;;5.65;1.13;;;;;;;15.78;62.93;101644.59;5008209;28;20512;-67
2022/07/10 02:08:40;;;;;;;7.63;1.30;;;;;;;15.61;63.40;101644.72;5025349;28;20096;-67
2022/07/10 02:11:08;;;;;;;4.65;1.08;;;;;;;15.89;63.34;101650.09;5017980;28;20053;-67
2022/07/10 02:13:34;;;;;;;5.57;0.88;;;;;;;15.73;63.55;101634.28;5023562;28;20045;-67
2022/07/10 02:16:00;;;;;;;6.75;2.25;;;;;;;15.81;63.57;101644.41;5025289;28;20429;-67
2022/07/10 02:18:27;;;;;;;4.72;1.10;;;;;;;16.15;62.23;101637.97;5017530;28;20096;-67
2022/07/10 02:20:54;;;;;;;3.78;1.10;;;;;;;15.73;63.66;101638.72;5010784;28;20050;-67
2022/07/10 02:23:20;;;;;;;4.43;1.33;;;;;;;15.64;64.47;101633.97;5007597;28;20050;-67
2022/07/10 02:25:46;;;;;;;4.00;1.25;;;;;;;16.10;63.43;101624.16;5005314;28;20115;-67
2022/07/10 02:28:14;;;;;;;8.15;1.08;;;;;;;16.04;63.48;101630.66;5024464;28;20521;-67
2022/07/10 02:30:40;;;;;;;9.43;1.23;;;;;;;16.38;61.95;101627.66;5025344;28;20041;-67
2022/07/10 02:33:06;;;;;;;7.47;0.90;;;;;;;16.08;62.48;101621.59;5024446;28;20131;-67
2022/07/10 02:35:33;;;;;;;6.85;1.08;;;;;;;15.72;63.81;101622.00;5025776;28;20463;-67
2022/07/10 02:37:59;;;;;;;2.45;1.00;;;;;;;15.30;66.09;101630.59;5024786;28;20466;-67
2022/07/10 02:40:26;;;;;;;5.05;0.77;;;;;;;15.27;66.29;101629.91;5016317;28;20042;-67
2022/07/10 02:42:52;;;;;;;4.55;0.88;;;;;;;15.34;66.15;101631.25;5025145;28;20054;-67
2022/07/10 02:45:20;;;;;;;4.53;1.05;;;;;;;15.70;65.93;101617.75;5021087;28;20111;-67
2022/07/10 02:47:46;;;;;;;4.85;0.90;;;;;;;15.43;66.50;101625.47;5017214;28;20501;-67
2022/07/10 02:50:13;;;;;;;3.75;0.85;;;;;;;15.47;66.62;101622.56;5013031;28;20104;-67
2022/07/10 02:52:39;;;;;;;3.90;1.10;;;;;;;15.78;65.77;101636.66;5003423;28;20073;-67
2022/07/10 02:55:07;;;;;;;6.80;1.05;;;;;;;15.82;66.24;101633.72;5005364;28;20038;-67
2022/07/10 02:57:33;;;;;;;3.75;0.98;;;;;;;15.58;69.04;101635.19;5019246;28;20119;-67
2022/07/10 02:59:59;;;;;;;4.32;0.93;;;;;;;15.16;74.25;101642.88;5031402;28;20061;-68
2022/07/10 03:02:27;;;;;;;5.80;1.42;;;;;;;15.14;75.51;101637.69;5040544;28;20041;-68
2022/07/10 03:04:53;;;;;;;6.18;1.33;;;;;;;15.01;76.42;101629.59;5045196;28;20401;-68
2022/07/10 03:07:20;;;;;;;2.75;0.95;;;;;;;15.23;75.49;101633.66;5032200;28;20127;-69
2022/07/10 03:09:46;;;;;;;7.45;1.25;;;;;;;15.13;76.23;101628.06;5020513;28;20070;-69
2022/07/10 03:12:13;;;;;;;5.50;1.42;;;;;;;15.00;76.83;101627.06;5019917;28;20107;-69
2022/07/10 03:14:39;;;;;;;4.82;1.42;;;;;;;15.05;76.95;101631.13;5023128;28;20046;-69
2022/07/10 03:17:05;;;;;;;5.43;1.25;;;;;;;15.27;75.85;101627.28;5022250;28;20080;-69
2022/07/10 03:19:33;;;;;;;7.63;1.60;;;;;;;15.30;75.83;101625.31;5026162;28;20099;-68
2022/07/10 03:21:59;;;;;;;5.43;0.93;;;;;;;14.79;76.78;101633.50;5007008;28;20053;-68
2022/07/10 03:24:26;;;;;;;5.10;1.20;;;;;;;14.86;76.78;101634.88;5007937;28;20065;-68
2022/07/10 03:26:52;;;;;;;7.25;1.60;;;;;;;14.88;76.80;101630.38;5016336;28;20045;-68
2022/07/10 03:29:18;;;;;;;5.40;1.15;;;;;;;15.34;74.76;101620.69;5027093;28;20069;-67
2022/07/10 03:31:44;;;;;;;8.07;1.20;;;;;;;15.24;75.47;101622.16;5027352;28;20049;-67
2022/07/10 03:34:11;;;;;;;6.05;1.10;;;;;;;15.13;73.55;101620.13;5028823;28;20072;-67
2022/07/10 03:36:39;;;;;;;4.55;0.93;;;;;;;14.54;75.31;101629.59;5016707;28;20045;-67
2022/07/10 03:39:05;;;;;;;3.72;0.93;;;;;;;14.73;73.79;101633.84;5006482;28;20062;-67
2022/07/10 03:41:32;;;;;;;4.40;0.88;;;;;;;14.39;75.50;101622.50;5009877;28;20045;-67
2022/07/10 03:43:58;;;;;;;1.77;0.80;;;;;;;14.45;75.27;101624.78;5007434;28;20073;-67
2022/07/10 03:46:24;;;;;;;2.40;0.77;;;;;;;14.51;75.34;101627.13;5026507;28;20065;-67
2022/07/10 03:48:51;;;;;;;3.80;0.70;;;;;;;14.18;77.08;101630.66;5027102;28;20045;-67
2022/07/10 03:51:18;;;;;;;3.20;0.82;;;;;;;14.07;77.75;101631.22;5027228;28;20512;-67
2022/07/10 03:53:45;;;;;;;1.30;0.60;;;;;;;14.15;78.64;101624.59;5027556;28;20131;-67
2022/07/10 03:57:53;;;;;;;2.78;0.70;;;;;;;14.50;77.75;101629.81;5008424;28;20096;-67
2022/07/10 03:58:57;;;;;;;4.07;0.90;;;;;;;14.60;76.83;101639.78;5025420;28;20049;-67
2022/07/10 04:01:24;;;;;;;2.97;0.82;;;;;;;14.59;76.74;101632.84;5026655;28;20052;-67
2022/07/10 04:03:50;;;;;;;3.90;0.98;;;;;;;14.62;77.02;101637.09;5027418;28;20068;-67
2022/07/10 04:06:16;;;;;;;4.03;1.20;;;;;;;14.54;77.76;101624.31;5027922;28;20049;-67
2022/07/10 04:08:43;;;;;;;3.35;1.20;;;;;;;14.54;78.25;101626.94;5018777;28;20045;-67
2022/07/10 04:11:10;;;;;;;3.60;1.20;;;;;;;14.33;78.89;101632.50;5027361;28;20049;-67
2022/07/10 04:13:37;;;;;;;2.78;1.23;;;;;;;14.30;79.76;101624.75;5028189;28;20119;-67
2022/07/10 04:16:03;;;;;;;6.20;1.20;;;;;;;14.49;78.96;101623.69;5025771;28;20072;-68
2022/07/10 04:18:30;;;;;;;3.13;1.40;;;;;;;14.75;77.94;101624.06;5025899;28;20210;-67
2022/07/10 04:20:56;;;;;;;4.30;0.93;;;;;;;14.93;76.53;101623.03;5027533;28;20175;-67
2022/07/10 04:23:22;;;;;;;1.50;0.77;;;;;;;15.02;75.83;101633.94;5026135;28;20485;-67
2022/07/10 04:25:48;;;;;;;3.60;1.25;;;;;;;14.81;76.89;101636.94;5028782;28;20069;-68
2022/07/10 04:28:16;;;;;;;3.90;0.98;;;;;;;14.82;76.97;101622.81;5025808;28;20471;-67
2022/07/10 04:30:42;;;;;;;2.33;1.00;;;;;;;14.72;77.27;101633.00;5027024;28;20041;-67
2022/07/10 04:33:09;;;;;;;3.03;0.90;;;;;;;14.95;75.97;101632.59;5027558;28;20080;-67
2022/07/10 04:35:35;;;;;;;2.17;0.90;;;;;;;14.51;76.99;101631.53;5026100;28;20099;-67
2022/07/10 04:38:01;;;;;;;1.30;0.65;;;;;;;14.57;76.81;101632.06;5021583;28;20167;-68
2022/07/10 04:40:28;;;;;;;4.90;1.42;;;;;;;14.80;76.11;101622.03;5024365;28;20049;-67
2022/07/10 04:42:54;;;;;;;2.33;0.88;;;;;;;15.14;74.76;101628.91;5025887;28;20045;-67
2022/07/10 04:45:22;;;;;;;5.10;1.00;;;;;;;15.08;74.59;101623.03;5026953;28;20135;-67
2022/07/10 04:47:48;;;;;;;3.35;1.00;;;;;;;14.96;75.16;101622.88;5027327;28;20099;-67
2022/07/10 04:50:14;;;;;;;3.42;1.10;;;;;;;14.89;75.91;101617.06;5025593;28;20077;-67
2022/07/10 04:52:41;;;;;;;5.90;1.30;;;;;;;15.04;75.52;101616.22;5024922;28;20068;-67
2022/07/10 04:55:08;;;;;;;3.40;1.02;;;;;;;15.00;75.70;101622.59;5028400;28;20413;-67
2022/07/10 04:57:34;;;;;;;3.38;1.27;;;;;;;15.19;74.87;101630.34;5025546;28;20041;-67
2022/07/10 05:00:01;;;;;;;4.32;1.35;;;;;;;15.30;74.83;101620.03;5024270;28;20069;-67
2022/07/10 05:02:29;;;;;;;3.53;1.73;;;;;;;15.26;74.18;101628.22;5026406;28;20099;-67
2022/07/10 05:04:55;;;;;;;3.03;1.05;;;;;;;15.33;75.10;101630.44;5025281;28;20049;-67
2022/07/10 05:07:21;;;;;;;4.47;1.20;;;;;;;15.43;73.53;101626.31;5027840;28;20838;-67
2022/07/10 05:09:48;;;;;;;4.65;1.20;;;;;;;15.26;74.92;101618.50;5032685;28;20049;-67
2022/07/10 05:12:14;;;;;;;9.07;1.50;;;;;;;15.36;75.31;101619.69;5024106;28;20077;-67
2022/07/10 05:14:40;;;;;;;4.40;1.00;;;;;;;15.04;76.04;101623.28;5025701;28;20677;-68
2022/07/10 05:17:07;;;;;;;8.02;1.58;;;;;;;15.08;74.50;101620.38;5015707;28;20049;-68
2022/07/10 05:19:34;;;;;;;4.72;1.33;;;;;;;15.57;73.00;101609.69;5025281;28;20045;-68
2022/07/10 05:22:01;;;;;;;10.88;1.60;;;;;;;15.55;73.94;101615.06;5025179;28;20468;-68
2022/07/10 05:24:27;;;;;;;7.93;1.92;;;;;;;15.30;73.99;101620.03;5027717;28;20069;-67
2022/07/10 05:26:53;;;;;;;4.95;1.20;;;;;;;15.50;73.36;101622.41;5024327;28;20099;-67
2022/07/10 05:29:19;;;;;;;7.70;1.35;;;;;;;15.42;74.23;101618.47;5026647;28;20482;-67
2022/07/10 05:31:46;;;;;;;4.40;1.00;;;;;;;15.70;73.27;101612.47;5026267;28;20050;-68
2022/07/10 05:34:12;;;;;;;4.50;1.13;;;;;;;15.48;74.10;101623.41;5024298;28;20067;-67
2022/07/10 05:36:40;;;;;;;6.35;1.70;;;;;;;15.12;74.89;101629.00;5025135;28;20052;-67
2022/07/10 05:39:06;;;;;;;5.50;1.25;;;;;;;15.13;74.27;101625.41;5024466;28;20224;-67
2022/07/10 05:41:32;;;;;;;5.95;1.27;;;;;;;15.25;74.25;101626.53;5025339;28;20519;-67
2022/07/10 05:43:59;;;;;;;9.63;1.75;;;;;;;15.54;73.85;101621.28;5025765;28;20042;-67
2022/07/10 05:46:25;;;;;;;7.78;1.70;;;;;;;15.93;72.21;101626.00;5023755;28;20513;-67
2022/07/10 05:48:52;;;;;;;5.35;2.05;;;;;;;15.42;73.18;101621.09;5024371;28;20049;-67
2022/07/10 05:51:19;;;;;;;5.85;1.83;;;;;;;15.34;73.18;101636.56;5026069;28;20045;-67
2022/07/10 05:53:46;;;;;;;4.43;1.20;;;;;;;15.66;72.41;101629.44;5025817;28;20053;-67
2022/07/10 05:56:13;;;;;;;6.82;1.67;;;;;;;15.84;71.60;101625.72;5024269;28;20069;-67
2022/07/10 05:58:39;;;;;;;12.20;1.83;;;;;;;15.62;72.01;101622.63;5025406;28;20472;-67
2022/07/10 06:01:05;;;;;;;3.10;1.05;;;;;;;15.85;71.48;101620.31;5025282;28;20046;-67
2022/07/10 06:03:32;;;;;;;5.03;0.93;;;;;;;15.99;70.23;101617.72;5024661;28;20252;-67
2022/07/10 06:05:59;;;;;;;6.85;1.30;;;;;;;15.62;72.74;101626.13;5025693;28;20046;-67
2022/07/10 06:08:25;;;;;;;6.15;1.30;;;;;;;15.71;71.79;101622.06;5024734;28;20416;-67
2022/07/10 06:10:53;;;;;;;3.70;1.60;;;;;;;16.14;70.72;101618.59;5004788;28;20461;-67
2022/07/10 06:13:19;;;;;;;3.35;1.10;;;;;;;16.31;69.45;101621.03;5006074;28;20677;-67
2022/07/10 06:15:46;;;;;;;7.95;1.20;;;;;;;16.14;68.89;101620.38;5013112;28;20619;-68
2022/07/10 06:18:12;;;;;;;5.00;1.05;;;;;;;15.86;70.17;101623.81;5021178;28;20497;-67
2022/07/10 06:20:38;;;;;;;4.43;1.17;;;;;;;16.08;70.16;101624.22;5016186;28;20131;-67
2022/07/10 06:23:05;;;;;;;5.47;1.33;;;;;;;15.60;71.70;101620.06;5044596;28;20130;-67
2022/07/10 06:25:31;;;;;;;4.55;1.10;;;;;;;15.87;70.54;101613.16;5045804;28;20519;-68
2022/07/10 06:27:59;;;;;;;8.10;1.42;;;;;;;16.01;69.89;101613.19;5032798;28;20057;-68
2022/07/10 06:30:25;;;;;;;7.30;1.30;;;;;;;16.40;68.69;101620.50;5024140;28;20421;-68
2022/07/10 06:32:51;;;;;;;5.25;1.38;;;;;;;16.69;67.82;101623.13;5026123;28;20104;-68
2022/07/10 06:35:18;;;;;;;4.43;1.48;;;;;;;16.42;68.59;101617.72;5024553;28;20073;-67
2022/07/10 06:37:44;;;;;;;3.75;0.98;;;;;;;16.61;68.97;101622.75;5024070;28;20045;-68
2022/07/10 06:40:13;;;;;;;4.00;1.27;;;;;;;16.35;69.52;101621.69;5025269;28;20049;-68
2022/07/10 06:42:40;;;;;;;4.50;1.00;;;;;;;16.54;68.96;101624.91;5022643;28;20590;-68
2022/07/10 06:45:09;;;;;;;6.03;1.25;;;;;;;16.45;68.64;101623.69;5023875;28;20132;-68
2022/07/10 06:50:19;;;;;;;6.78;1.40;;;;;;;16.52;67.78;101624.13;5020073;28;20509;-68
2022/07/10 06:52:45;;;;;;;4.65;0.93;;;;;;;16.26;68.83;101625.75;5025672;28;21989;-69
2022/07/10 06:55:13;;;;;;;5.25;1.70;;;;;;;16.60;67.36;101631.63;5022204;28;20091;-71
2022/07/10 06:57:39;;;;;;;4.85;1.50;;;;;;;16.11;69.63;101624.06;5017953;28;20100;-71
2022/07/10 07:00:10;;;;;;;4.40;1.13;;;;;;;16.31;69.50;101626.34;5018945;28;20417;-71
2022/07/10 07:02:36;;;;;;;6.00;1.40;;;;;;;16.58;68.83;101628.25;5026558;28;20045;-71
2022/07/10 07:05:03;;;;;;;4.15;1.30;;;;;;;16.73;67.90;101633.44;5024889;28;20101;-71
2022/07/10 07:07:29;;;;;;;5.03;1.27;;;;;;;16.76;66.94;101629.75;5029652;28;20072;-71
2022/07/10 07:09:55;;;;;;;6.63;1.38;;;;;;;16.49;67.95;101625.19;5034832;28;20485;-71
2022/07/10 07:12:22;;;;;;;6.05;1.52;;;;;;;16.42;67.26;101636.25;5028319;28;20049;-71
2022/07/10 07:14:48;;;;;;;6.35;1.75;;;;;;;16.55;68.02;101631.91;5021237;28;20457;-71
2022/07/10 07:17:21;;;;;;;6.00;1.40;;;;;;;16.61;67.08;101634.22;5019407;28;20092;-71
2022/07/10 07:25:24;;;;;;;6.82;1.50;;;;;;;16.80;65.16;101629.47;4980835;28;20116;-71
2022/07/10 07:27:51;;;;;;;6.13;1.45;;;;;;;17.00;65.37;101620.22;5028761;28;20731;-71
2022/07/10 07:30:17;;;;;;;8.48;2.25;;;;;;;16.76;66.18;101632.38;5018332;28;20092;-71
2022/07/10 07:32:46;;;;;;;7.43;1.58;;;;;;;17.05;64.69;101636.69;5010547;28;20049;-71
2022/07/10 07:35:14;;;;;;;7.63;2.25;;;;;;;17.16;65.19;101630.69;5007756;28;20054;-71
2022/07/10 07:37:42;;;;;;;6.63;1.63;;;;;;;17.27;65.83;101629.03;5025955;28;20049;-71
2022/07/10 07:40:11;;;;;;;9.57;1.85;;;;;;;17.18;63.85;101632.31;5012820;28;20050;-71
2022/07/10 07:42:38;;;;;;;9.15;2.17;;;;;;;17.70;63.18;101635.00;5021298;28;20045;-71
2022/07/10 07:45:06;;;;;;;6.95;2.15;;;;;;;17.63;62.24;101627.56;5030326;28;20647;-72
2022/07/10 07:47:42;;;;;;;8.20;2.28;;;;;;;17.50;61.94;101633.69;5028652;28;20425;-71
2022/07/10 07:50:10;;;;;;;7.53;1.50;;;;;;;17.30;62.23;101628.81;5029858;28;20045;-72
2022/07/10 07:52:40;;;;;;;6.07;1.73;;;;;;;17.43;61.46;101620.94;5031560;28;20049;-71
2022/07/10 07:55:07;;;;;;;9.93;1.80;;;;;;;17.49;62.20;101631.97;5028109;28;20103;-72
2022/07/10 07:57:33;;;;;;;12.90;2.10;;;;;;;17.48;60.95;101624.97;5029582;28;20091;-71
2022/07/10 07:59:59;;;;;;;7.75;2.17;;;;;;;17.58;62.35;101617.28;5029969;28;20387;-72
2022/07/10 08:02:26;;;;;;;10.50;2.00;;;;;;;17.72;60.78;101619.00;5027010;28;20045;-72
2022/07/10 08:04:52;;;;;;;12.52;2.00;;;;;;;17.64;61.25;101622.16;5029045;28;20487;-72
2022/07/10 08:07:20;;;;;;;6.05;1.63;;;;;;;17.67;60.70;101613.16;5030710;28;20095;-72
2022/07/10 08:09:46;;;;;;;9.15;1.83;;;;;;;17.68;60.90;101615.72;5018877;28;20057;-72
2022/07/10 08:12:12;;;;;;;10.15;2.05;;;;;;;17.44;60.73;101614.69;5027791;28;20087;-72
2022/07/10 08:14:39;;;;;;;6.03;1.67;;;;;;;17.57;59.54;101604.13;5031789;28;20104;-72
2022/07/10 08:17:05;;;;;;;7.50;2.15;;;;;;;17.64;59.10;101610.72;5028650;28;20045;-72
2022/07/10 08:19:31;;;;;;;6.80;1.42;;;;;;;17.44;60.35;101607.56;5027644;28;20045;-72
2022/07/10 08:21:58;;;;;;;7.13;1.90;;;;;;;17.45;59.32;101614.56;5029673;28;20445;-72
2022/07/10 08:24:25;;;;;;;13.48;2.78;;;;;;;17.36;59.34;101617.84;5025922;28;20099;-72
2022/07/10 08:26:52;;;;;;;12.88;4.05;;;;;;;17.23;59.39;101616.94;5028663;28;20034;-72
2022/07/10 08:29:19;;;;;;;7.35;1.70;;;;;;;17.17;60.71;101606.75;5028006;28;20136;-72
2022/07/10 08:31:45;;;;;;;5.03;1.38;;;;;;;17.32;59.94;101605.75;5026376;28;20139;-71
2022/07/10 08:34:12;;;;;;;8.30;1.95;;;;;;;17.81;59.01;101599.84;5028721;28;20049;-72
2022/07/10 08:36:38;;;;;;;9.50;1.92;;;;;;;17.95;58.92;101605.88;5029405;28;20411;-73
2022/07/10 08:39:04;;;;;;;6.75;1.77;;;;;;;17.82;58.11;101604.16;5021814;28;20755;-72
2022/07/10 08:41:34;;;;;;;7.15;1.67;;;;;;;17.87;58.10;101599.41;5005760;28;20046;-71
2022/07/10 08:44:01;;;;;;;6.70;1.83;;;;;;;17.59;58.96;101600.41;5025967;28;20068;-72
2022/07/10 08:46:28;;;;;;;6.65;1.63;;;;;;;17.98;58.03;101607.47;5017811;28;20046;-72
2022/07/10 08:48:57;;;;;;;7.28;1.80;;;;;;;18.55;55.86;101604.41;5024597;28;20042;-72
2022/07/10 08:51:31;;;;;;;3.50;1.10;;;;;;;18.57;54.81;101605.13;5027842;28;20095;-72
2022/07/10 08:54:01;;;;;;;10.07;1.65;;;;;;;19.03;54.88;101607.97;5020443;28;20073;-73
2022/07/10 08:56:27;;;;;;;9.68;2.05;;;;;;;19.30;54.37;101603.25;5026134;28;20398;-72
2022/07/10 08:58:55;;;;;;;8.85;2.60;;;;;;;19.84;53.08;101595.63;5024916;28;20052;-72
2022/07/10 09:01:23;;;;;;;7.50;1.35;;;;;;;20.21;52.82;101596.28;5026401;28;20049;-72
2022/07/10 09:03:50;;;;;;;6.13;1.55;;;;;;;20.52;52.22;101595.56;5025574;28;20049;-72
2022/07/10 09:06:17;;;;;;;8.73;1.70;;;;;;;20.75;51.47;101597.25;5025200;28;20433;-72
2022/07/10 09:08:59;;;;;;;10.55;1.88;;;;;;;20.79;49.51;101598.69;5026126;28;20417;-72
2022/07/10 09:11:28;;;;;;;7.93;1.63;;;;;;;20.74;47.64;101600.00;5022620;28;20042;-72
2022/07/10 09:13:58;;;;;;;9.05;2.50;;;;;;;20.53;49.10;101604.41;5026737;28;20433;-72
2022/07/10 09:16:25;;;;;;;9.18;1.80;;;;;;;20.01;49.92;101586.31;5023129;28;20123;-73
2022/07/10 09:18:52;;;;;;;8.50;1.75;;;;;;;20.30;50.49;101595.56;5025676;28;20869;-73
2022/07/10 09:21:18;;;;;;;6.93;1.65;;;;;;;20.91;50.01;101596.84;5039390;28;20108;-73
2022/07/10 09:23:45;;;;;;;7.82;1.75;;;;;;;21.16;48.14;101601.03;5025313;28;20041;-72
2022/07/10 09:26:11;;;;;;;10.55;1.70;;;;;;;21.05;47.22;101601.91;5025775;28;20095;-72
2022/07/10 09:28:38;;;;;;;6.80;1.48;;;;;;;20.67;46.21;101593.47;5024213;28;20037;-72
2022/07/10 09:31:06;;;;;;;6.85;1.85;;;;;;;20.20;47.09;101594.56;5023092;28;20045;-71
2022/07/10 09:33:34;;;;;;;5.30;2.00;;;;;;;19.92;48.47;101602.03;5023890;28;20045;-71
2022/07/10 09:36:06;;;;;;;6.03;1.60;;;;;;;20.64;52.77;101594.59;5025914;28;20049;-71
2022/07/10 09:38:52;;;;;;;8.68;1.90;;;;;;;21.19;46.37;101587.44;5018243;28;20661;-72
2022/07/10 09:41:21;;;;;;;8.38;1.50;;;;;;;21.21;47.11;101593.53;5012887;28;20053;-71
2022/07/10 09:43:48;;;;;;;8.95;1.50;;;;;;;21.05;47.24;101591.22;5024630;28;20049;-71
2022/07/10 09:46:16;;;;;;;6.93;1.50;;;;;;;20.46;47.02;101590.72;5016551;28;20053;-72
2022/07/10 09:48:43;;;;;;;5.47;1.50;;;;;;;20.13;46.79;101604.00;5025685;28;20721;-71
2022/07/10 09:51:11;;;;;;;5.32;1.65;;;;;;;20.16;47.58;101583.31;5024793;28;20061;-71
2022/07/10 09:53:40;;;;;;;5.25;1.48;;;;;;;19.94;48.57;101596.59;5024986;28;20721;-71
2022/07/10 09:56:08;;;;;;;5.60;1.52;;;;;;;19.25;52.12;101600.09;5024199;28;20049;-71
2022/07/10 09:58:36;;;;;;;8.02;1.95;;;;;;;19.08;51.41;101598.69;5026188;28;20049;-71
2022/07/10 10:01:03;;;;;;;5.55;1.58;;;;;;;19.42;51.20;101587.28;5021527;28;20404;-71
2022/07/10 10:03:34;;;;;;;5.82;1.40;;;;;;;20.92;48.74;101579.84;5025167;28;20133;-71
2022/07/10 10:06:04;;;;;;;4.63;1.65;;;;;;;21.60;48.78;101567.97;5025888;28;20501;-72
2022/07/10 10:08:38;;;;;;;6.65;1.40;;;;;;;22.78;45.25;101570.97;5026063;28;20119;-72
2022/07/10 10:11:07;;;;;;;6.80;2.10;;;;;;;23.78;45.26;101569.72;5024242;28;20731;-72
2022/07/10 10:13:35;;;;;;;7.15;1.50;;;;;;;24.04;41.62;101561.88;5020584;28;20140;-72
2022/07/10 10:16:03;;;;;;;9.52;1.42;;;;;;;23.68;42.87;101563.53;5014523;28;20046;-72
2022/07/10 10:18:29;;;;;;;6.30;1.45;;;;;;;22.69;40.58;101567.28;5016330;28;20123;-72
2022/07/10 10:20:56;;;;;;;5.57;1.58;;;;;;;21.74;42.15;101570.31;5004207;28;20135;-72
2022/07/10 10:23:24;;;;;;;7.93;1.40;;;;;;;20.89;43.72;101580.97;5021621;28;20057;-71
2022/07/10 10:25:53;;;;;;;5.20;1.40;;;;;;;20.84;45.20;101577.00;5022205;28;20124;-71
2022/07/10 10:28:23;;;;;;;5.80;1.30;;;;;;;20.64;46.51;101577.75;5021033;28;20046;-71
2022/07/10 10:30:51;;;;;;;9.23;1.80;;;;;;;20.32;47.56;101567.84;5007220;28;20498;-71
2022/07/10 10:33:46;;;;;;;5.47;1.40;;;;;;;20.37;48.44;101573.66;5005629;28;20569;-71
2022/07/10 10:36:17;;;;;;;12.07;2.20;;;;;;;20.95;51.49;101563.63;5008546;28;20052;-71
2022/07/10 10:39:09;;;;;;;10.10;2.30;;;;;;;21.74;45.32;101562.31;5014704;28;20529;-71
2022/07/10 10:41:40;;;;;;;8.02;1.38;;;;;;;22.54;45.29;101567.78;5025581;28;20559;-71
2022/07/10 10:44:28;;;;;;;7.50;2.10;;;;;;;22.59;43.54;101558.34;5010357;28;20125;-72
2022/07/10 10:47:00;;;;;;;8.27;1.63;;;;;;;22.58;42.93;101558.50;5022496;28;20144;-71
2022/07/10 10:49:47;;;;;;;7.80;1.52;;;;;;;22.78;42.37;101569.13;5016301;28;20073;-71
2022/07/10 10:52:16;;;;;;;5.38;1.48;;;;;;;22.47;42.34;101570.13;5022278;28;20454;-71
2022/07/10 10:55:03;;;;;;;4.95;1.95;;;;;;;23.38;45.77;101556.50;5018322;28;20685;-72
2022/07/10 10:57:39;;;;;;;8.20;1.63;;;;;;;24.06;41.88;101560.75;5013255;28;20045;-72
2022/07/10 11:00:07;;;;;;;7.03;1.42;;;;;;;24.21;37.55;101551.28;5025368;28;20052;-72
2022/07/10 11:02:36;;;;;;;10.88;1.80;;;;;;;24.54;39.56;101554.34;5024426;28;20170;-72
2022/07/10 11:05:36;;;;;;;7.03;1.45;;;;;;;24.22;40.38;101557.47;5033688;28;20136;-72
2022/07/10 11:08:05;;;;;;;8.55;1.67;;;;;;;23.92;39.64;101561.22;5015411;28;20084;-72
2022/07/10 11:10:35;;;;;;;7.05;1.42;;;;;;;24.10;41.12;101554.09;5011426;28;20096;-72
2022/07/10 11:13:02;;;;;;;10.75;2.03;;;;;;;24.98;40.79;101542.78;5024942;28;20053;-72
2022/07/10 11:15:30;;;;;;;5.88;1.67;;;;;;;25.37;39.29;101545.16;5013455;28;20081;-72
2022/07/10 11:17:57;;;;;;;7.28;2.72;;;;;;;25.80;39.27;101544.31;5015233;28;20068;-72
2022/07/10 11:20:23;;;;;;;6.22;1.70;;;;;;;25.72;34.94;101547.78;5022678;28;20038;-72
2022/07/10 11:22:56;;;;;;;7.55;1.52;;;;;;;25.64;38.02;101539.69;5024401;28;20045;-73
2022/07/10 11:25:42;;;;;;;5.07;1.50;;;;;;;25.36;35.11;101543.47;5025067;28;20046;-73
2022/07/10 11:28:10;;;;;;;7.25;1.30;;;;;;;24.21;36.12;101545.91;5022965;28;20128;-73
2022/07/10 11:30:49;;;;;;;6.68;1.77;;;;;;;23.57;37.93;101545.81;5024108;28;20048;-72
2022/07/10 11:33:16;;;;;;;4.90;1.50;;;;;;;22.76;38.17;101551.56;5022957;28;20095;-73
2022/07/10 11:35:45;;;;;;;9.18;1.70;;;;;;;23.51;40.13;101540.16;5025278;28;20050;-73
2022/07/10 11:38:12;;;;;;;7.15;1.52;;;;;;;24.21;40.85;101537.88;5019348;28;20046;-72